Time;durP1;ratioP1;P1;durP2;ratioP2;P2;SDS_P1;SDS_P2;PMS_P1;PMS_P2;Temp;Humidity;BMP_temperature;BMP_pressure;BME280_temperature;BME280_humidity;BME280_pressure;Samples;Min_cycle;Max_cycle;Signal;HPM_P1;HPM_P2
2022/06/28 00:00:49;;;;;;;;;;;;;;;-142.75;100.00;77237.66;5014073;28;19917;-67
2022/06/28 00:03:14;;;;;;;;;;;;;;;-142.75;100.00;77249.47;5014081;28;19960;-67
2022/06/28 00:05:40;;;;;;;;;;;;;;;-142.75;100.00;77243.56;5014133;28;19913;-67
2022/06/28 00:08:05;;;;;;;;;;;;;;;-142.75;100.00;77257.34;5013790;28;19913;-66
2022/06/28 00:10:30;;;;;;;;;;;;;;;-142.75;100.00;77251.44;5014086;28;19914;-66
2022/06/28 00:12:56;;;;;;;;;;;;;;;-142.75;100.00;77251.44;5013874;28;20264;-66
2022/06/28 00:18:05;;;;;;;;;;;;;;;-142.75;100.00;77259.31;5013563;28;19924;-66
2022/06/28 00:20:30;;;;;;;;;;;;;;;-142.75;100.00;77257.34;5013795;28;20282;-66
2022/06/28 00:22:56;;;;;;;;;;;;;;;-142.75;100.00;77267.19;5013699;28;19914;-66
2022/06/28 00:25:21;;;;;;;;;;;;;;;-142.75;100.00;77271.13;5013729;28;20089;-66
2022/06/28 00:27:46;;;;;;;;;;;;;;;-142.75;100.00;77279.00;5013437;28;19913;-66
2022/06/28 00:30:12;;;;;;;;;;;;;;;-142.75;100.00;77279.00;5012023;28;20302;-67
2022/06/28 00:32:37;;;;;;;;;;;;;;;-142.75;100.00;77280.97;5013285;28;20383;-66
2022/06/28 00:35:02;;;;;;;;;;;;;;;-142.75;100.00;77277.03;5013480;28;20325;-66
2022/06/28 00:37:28;;;;;;;;;;;;;;;-142.75;100.00;77271.13;5013305;28;20396;-65
2022/06/28 00:39:54;;;;;;;;;;;;;;;-142.75;100.00;77279.00;5013815;28;19913;-66
2022/06/28 00:42:19;;;;;;;;;;;;;;;-142.75;100.00;77271.13;5013325;28;19968;-66
2022/06/28 00:44:45;;;;;;;;;;;;;;;-142.75;100.00;77269.16;5013223;28;19913;-66
2022/06/28 00:47:10;;;;;;;;;;;;;;;-142.75;100.00;77273.09;5013357;28;20009;-66
2022/06/28 00:49:42;;;;;;;;;;;;;;;-142.75;100.00;77279.00;5013075;28;20411;-67
2022/06/28 00:52:08;;;;;;;;;;;;;;;-142.75;100.00;77279.00;5013771;28;19917;-66
2022/06/28 00:54:33;;;;;;;;;;;;;;;-142.75;100.00;77269.16;5013574;28;19948;-67
2022/06/28 00:56:59;;;;;;;;;;;;;;;-142.75;100.00;77269.16;5013057;28;19917;-66
2022/06/28 00:59:24;;;;;;;;;;;;;;;-142.75;100.00;77267.19;5012671;28;19917;-66
2022/06/28 01:01:49;;;;;;;;;;;;;;;-142.75;100.00;77273.09;5013055;28;20008;-66
2022/06/28 01:04:14;;;;;;;;;;;;;;;-142.75;100.00;77279.00;5012913;28;20375;-67
2022/06/28 01:06:40;;;;;;;;;;;;;;;-142.75;100.00;77273.09;5012872;28;19914;-67
2022/06/28 01:09:05;;;;;;;;;;;;;;;-142.75;100.00;77267.19;5012635;28;19913;-67
2022/06/28 01:11:32;;;;;;;;;;;;;;;-142.75;100.00;77265.22;5012825;28;19913;-66
2022/06/28 01:13:58;;;;;;;;;;;;;;;-142.75;100.00;77279.00;5012630;28;20272;-66
2022/06/28 01:16:23;;;;;;;;;;;;;;;-142.75;100.00;77279.00;5012832;28;19913;-67
2022/06/28 01:18:49;;;;;;;;;;;;;;;-142.75;100.00;77282.94;5011037;28;19924;-67
2022/06/28 01:21:15;;;;;;;;;;;;;;;-142.75;100.00;77286.88;5011456;28;20410;-67
2022/06/28 01:23:41;;;;;;;;;;;;;;;-142.75;100.00;77288.84;5012560;28;19913;-67
2022/06/28 01:26:06;;;;;;;;;;;;;;;-142.75;100.00;77298.69;5012632;28;19913;-67
2022/06/28 01:28:33;;;;;;;;;;;;;;;-142.75;100.00;77302.63;5012228;28;19917;-66
2022/06/28 01:30:58;;;;;;;;;;;;;;;-142.75;100.00;77312.47;5012607;28;19913;-66
2022/06/28 01:33:24;;;;;;;;;;;;;;;-142.75;100.00;77310.50;5012386;28;20000;-67
2022/06/28 01:35:49;;;;;;;;;;;;;;;-142.75;100.00;77310.50;5012459;28;20422;-66
2022/06/28 01:38:14;;;;;;;;;;;;;;;-142.75;100.00;77306.56;5012167;28;19918;-66
2022/06/28 01:40:44;;;;;;;;;;;;;;;-142.75;100.00;77306.56;5012461;28;19914;-66
2022/06/28 01:43:09;;;;;;;;;;;;;;;-142.75;100.00;77308.53;5011095;28;19921;-66
2022/06/28 01:45:36;;;;;;;;;;;;;;;-142.75;100.00;77304.59;5012602;28;19913;-66
2022/06/28 01:48:01;;;;;;;;;;;;;;;-142.75;100.00;77310.50;5013440;28;20156;-66
2022/06/28 01:50:26;;;;;;;;;;;;;;;-142.75;100.00;77328.22;5016448;28;20008;-66
2022/06/28 01:52:51;;;;;;;;;;;;;;;-142.75;100.00;77340.03;5016389;28;19917;-67
2022/06/28 01:55:17;;;;;;;;;;;;;;;-142.75;100.00;77342.00;5016322;28;19928;-66
2022/06/28 01:57:42;;;;;;;;;;;;;;;-142.75;100.00;77349.88;5016036;28;19917;-65
2022/06/28 02:00:08;;;;;;;;;;;;;;;-142.75;100.00;77353.81;5016358;28;19921;-67
2022/06/28 02:02:33;;;;;;;;;;;;;;;-142.75;100.00;77349.88;5016242;28;19914;-66
2022/06/28 02:04:59;;;;;;;;;;;;;;;-142.75;100.00;77347.91;5016277;28;20007;-67
2022/06/28 02:07:24;;;;;;;;;;;;;;;-142.75;100.00;77361.69;5016219;28;19957;-66
2022/06/28 02:09:49;;;;;;;;;;;;;;;-142.75;100.00;77369.56;5015822;28;19913;-66
2022/06/28 02:12:14;;;;;;;;;;;;;;;-142.75;100.00;77361.69;5015978;28;19968;-67
2022/06/28 02:14:40;;;;;;;;;;;;;;;-142.75;100.00;77361.69;5016058;28;19920;-67
2022/06/28 02:17:05;;;;;;;;;;;;;;;-142.75;100.00;77353.81;5016073;28;20298;-66
2022/06/28 02:19:30;;;;;;;;;;;;;;;-142.75;100.00;77357.75;5015599;28;19917;-67
2022/06/28 02:21:55;;;;;;;;;;;;;;;-142.75;100.00;77353.81;5016127;28;19913;-66
2022/06/28 02:24:21;;;;;;;;;;;;;;;-142.75;100.00;77355.78;5015932;28;19917;-67
2022/06/28 02:26:46;;;;;;;;;;;;;;;-142.75;100.00;77361.69;5015704;28;20592;-66
2022/06/28 02:29:11;;;;;;;;;;;;;;;-142.75;100.00;77371.53;5015699;28;19914;-66
2022/06/28 02:31:36;;;;;;;;;;;;;;;-142.75;100.00;77373.50;5015889;28;19925;-66
2022/06/28 02:34:02;;;;;;;;;;;;;;;-142.75;100.00;77371.53;5020784;22;19933;-69
2022/06/28 02:41:42;;;;;;;;;;;;;;;-142.75;100.00;77385.31;4973227;28;19937;-69
2022/06/28 02:44:08;;;;;;;;;;;;;;;-142.75;100.00;77383.34;4973106;28;20369;-69
2022/06/28 02:46:33;;;;;;;;;;;;;;;-142.75;100.00;77389.25;4973235;28;19997;-69
2022/06/28 02:48:58;;;;;;;;;;;;;;;-142.75;100.00;77391.22;4971672;28;20272;-69
2022/06/28 02:51:24;;;;;;;;;;;;;;;-142.75;100.00;77393.19;4973095;28;20366;-69
2022/06/28 02:53:51;;;;;;;;;;;;;;;-142.75;100.00;77401.06;4972956;28;19922;-69
2022/06/28 02:56:17;;;;;;;;;;;;;;;-142.75;100.00;77416.81;4971733;28;20383;-69
2022/06/28 02:58:42;;;;;;;;;;;;;;;-142.75;100.00;77420.75;4971005;28;19964;-69
2022/06/28 03:01:07;;;;;;;;;;;;;;;-142.75;100.00;77426.66;4972187;28;20385;-69
2022/06/28 03:03:32;;;;;;;;;;;;;;;-142.75;100.00;77424.69;4972994;28;19937;-69
2022/06/28 03:05:57;;;;;;;;;;;;;;;-142.75;100.00;77424.69;4972885;28;20386;-69
2022/06/28 03:08:23;;;;;;;;;;;;;;;-142.75;100.00;77432.56;4971305;28;19914;-68
2022/06/28 03:10:48;;;;;;;;;;;;;;;-142.75;100.00;77426.66;4971524;28;20399;-69
2022/06/28 03:13:13;;;;;;;;;;;;;;;-142.75;100.00;77430.59;4972768;28;19914;-69
2022/06/28 03:15:38;;;;;;;;;;;;;;;-142.75;100.00;77428.63;4972787;28;20352;-69
2022/06/28 03:18:04;;;;;;;;;;;;;;;-142.75;100.00;77434.53;4972446;28;19925;-69
2022/06/28 03:20:30;;;;;;;;;;;;;;;-142.75;100.00;77440.44;4972877;28;19921;-69
2022/06/28 03:22:55;;;;;;;;;;;;;;;-142.75;100.00;77440.44;4972769;28;19914;-69
2022/06/28 03:25:21;;;;;;;;;;;;;;;-142.75;100.00;77444.38;4972783;28;19914;-69
2022/06/28 03:27:47;;;;;;;;;;;;;;;-142.75;100.00;77446.34;4972614;28;19914;-69
2022/06/28 03:30:12;;;;;;;;;;;;;;;-142.75;100.00;77444.38;4972679;28;19928;-69
2022/06/28 03:32:38;;;;;;;;;;;;;;;-142.75;100.00;77456.22;4971602;28;19918;-69
2022/06/28 03:35:03;;;;;;;;;;;;;;;-142.75;100.00;77458.16;4972576;28;20013;-69
2022/06/28 03:37:28;;;;;;;;;;;;;;;-142.75;100.00;77468.03;4972542;28;19960;-69
2022/06/28 03:39:53;;;;;;;;;;;;;;;-142.75;100.00;77468.03;4972731;28;20256;-69
2022/06/28 03:42:19;;;;;;;;;;;;;;;-142.75;100.00;77471.97;4972539;28;19957;-69
2022/06/28 03:44:44;;;;;;;;;;;;;;;-142.75;100.00;77479.84;4971282;28;20375;-70
2022/06/28 03:47:09;;;;;;;;;;;;;;;-142.75;100.00;77485.75;4971248;28;20402;-69
2022/06/28 03:49:34;;;;;;;;;;;;;;;-142.75;100.00;77487.72;4972120;28;19914;-69
2022/06/28 03:52:00;;;;;;;;;;;;;;;-142.75;100.00;77497.56;4972344;28;20398;-70
2022/06/28 03:54:25;;;;;;;;;;;;;;;-142.75;100.00;77491.66;4972117;28;19914;-69
2022/06/28 03:56:51;;;;;;;;;;;;;;;-142.75;100.00;77493.63;4972280;28;19922;-69
2022/06/28 03:59:16;;;;;;;;;;;;;;;-142.75;100.00;77497.56;4972140;28;20356;-69
2022/06/28 04:01:41;;;;;;;;;;;;;;;-142.75;100.00;77507.41;4972127;28;20312;-69
2022/06/28 04:04:06;;;;;;;;;;;;;;;-142.75;100.00;77509.38;4972029;28;19918;-69
2022/06/28 04:06:31;;;;;;;;;;;;;;;-142.75;100.00;77501.50;4972009;28;19914;-69
2022/06/28 04:08:57;;;;;;;;;;;;;;;-142.75;100.00;77503.47;4971589;28;19925;-69
2022/06/28 04:11:22;;;;;;;;;;;;;;;-142.75;100.00;77497.56;4971558;28;19997;-69
2022/06/28 04:13:48;;;;;;;;;;;;;;;-142.75;100.00;77503.47;4971818;28;19921;-69
2022/06/28 04:16:14;;;;;;;;;;;;;;;-142.75;100.00;77503.47;4971886;28;20006;-69
2022/06/28 04:18:39;;;;;;;;;;;;;;;-142.75;100.00;77503.47;4971549;28;20350;-69
2022/06/28 04:21:05;;;;;;;;;;;;;;;-142.75;100.00;77495.59;4971846;28;20384;-69
2022/06/28 04:23:30;;;;;;;;;;;;;;;-142.75;100.00;77501.50;4972163;28;20006;-69
2022/06/28 04:25:55;;;;;;;;;;;;;;;-142.75;100.00;77495.59;4972298;28;20303;-69
2022/06/28 04:28:21;;;;;;;;;;;;;;;-142.75;100.00;77489.69;4971553;28;19914;-69
2022/06/28 04:30:46;;;;;;;;;;;;;;;-142.75;100.00;77483.78;4971644;28;20054;-69
2022/06/28 04:33:11;;;;;;;;;;;;;;;-142.75;100.00;77483.78;4971505;28;19914;-69
2022/06/28 04:35:37;;;;;;;;;;;;;;;-142.75;100.00;77471.97;4970291;28;19918;-69
2022/06/28 04:38:02;;;;;;;;;;;;;;;-142.75;100.00;77468.03;4971171;28;19925;-69
2022/06/28 04:40:27;;;;;;;;;;;;;;;-142.75;100.00;77460.13;4971685;28;19973;-69
2022/06/28 04:42:53;;;;;;;;;;;;;;;-142.75;100.00;77464.09;4971658;28;19914;-69
2022/06/28 04:45:18;;;;;;;;;;;;;;;-142.75;100.00;77452.25;4970136;28;19921;-69
2022/06/28 04:47:43;;;;;;;;;;;;;;;-142.75;100.00;77452.25;4971308;28;20279;-68
2022/06/28 04:50:09;;;;;;;;;;;;;;;-142.75;100.00;77440.44;4971297;28;19914;-69
2022/06/28 04:52:34;;;;;;;;;;;;;;;-142.75;100.00;77424.69;4970080;28;19921;-69
2022/06/28 04:54:59;;;;;;;;;;;;;;;-142.75;100.00;77434.53;4971153;28;19914;-69
2022/06/28 04:57:25;;;;;;;;;;;;;;;-142.75;100.00;77436.50;4971260;28;19950;-69
2022/06/28 04:59:50;;;;;;;;;;;;;;;-142.75;100.00;77432.56;4971173;28;19914;-69
2022/06/28 05:02:15;;;;;;;;;;;;;;;-142.75;100.00;77414.84;4971254;28;19968;-69
2022/06/28 05:04:40;;;;;;;;;;;;;;;-142.75;100.00;77414.84;4971127;28;19921;-69
2022/06/28 05:07:05;;;;;;;;;;;;;;;-142.75;100.00;77405.00;4969890;28;19914;-69
2022/06/28 05:09:31;;;;;;;;;;;;;;;-142.75;100.00;77393.19;4970663;28;19914;-69
2022/06/28 05:11:56;;;;;;;;;;;;;;;-142.75;100.00;77375.47;4969897;28;19914;-69
2022/06/28 05:14:21;;;;;;;;;;;;;;;-142.75;100.00;77365.63;4970914;28;19948;-69
2022/06/28 05:16:46;;;;;;;;;;;;;;;-142.75;100.00;77361.69;4970886;28;20412;-69
2022/06/28 05:19:11;;;;;;;;;;;;;;;-142.75;100.00;77355.78;4970561;28;19918;-69
2022/06/28 05:21:37;;;;;;;;;;;;;;;-142.75;100.00;77330.19;4970753;28;19918;-69
2022/06/28 05:24:02;;;;;;;;;;;;;;;-142.75;100.00;77320.34;4969952;28;19914;-68
2022/06/28 05:26:27;;;;;;;;;;;;;;;-142.75;100.00;77310.50;4970855;28;19914;-69
2022/06/28 05:28:53;;;;;;;;;;;;;;;-142.75;100.00;77298.69;4970578;28;20338;-69
2022/06/28 05:31:18;;;;;;;;;;;;;;;-142.75;100.00;77292.78;4970767;28;20283;-69
2022/06/28 05:33:43;;;;;;;;;;;;;;;-142.75;100.00;77275.06;4969346;28;19925;-69
2022/06/28 05:36:08;;;;;;;;;;;;;;;-142.75;100.00;77259.31;4970691;28;19945;-69
2022/06/28 05:38:33;;;;;;;;;;;;;;;-142.75;100.00;77249.47;4970195;28;19992;-69
2022/06/28 05:40:59;;;;;;;;;;;;;;;-142.75;100.00;77253.41;4970672;28;20023;-69
2022/06/28 05:43:24;;;;;;;;;;;;;;;-142.75;100.00;77255.38;4970574;28;19972;-69
2022/06/28 05:45:49;;;;;;;;;;;;;;;-142.75;100.00;77237.66;4970601;28;19914;-69
2022/06/28 05:48:14;;;;;;;;;;;;;;;-142.75;100.00;77227.81;4969066;28;19937;-69
2022/06/28 05:50:39;;;;;;;;;;;;;;;-142.75;100.00;77225.84;4970580;28;20474;-69
2022/06/28 05:53:05;;;;;;;;;;;;;;;-142.75;100.00;77214.03;4970314;28;19933;-69
2022/06/28 05:55:31;;;;;;;;;;;;;;;-142.75;100.00;77200.25;4969310;28;19914;-69
2022/06/28 05:57:56;;;;;;;;;;;;;;;-142.75;100.00;77188.44;4970078;28;20287;-69
2022/06/28 06:00:22;;;;;;;;;;;;;;;-142.75;100.00;77170.72;4970434;28;20435;-70
2022/06/28 06:02:47;;;;;;;;;;;;;;;-142.75;100.00;77168.75;4969114;28;20307;-70
2022/06/28 06:05:12;;;;;;;;;;;;;;;-142.75;100.00;77156.94;4970266;28;19914;-70
2022/06/28 06:07:37;;;;;;;;;;;;;;;-142.75;100.00;77141.19;4970187;28;19968;-70
2022/06/28 06:10:03;;;;;;;;;;;;;;;-142.75;100.00;77125.44;4970045;28;20449;-69
2022/06/28 06:12:28;;;;;;;;;;;;;;;-142.75;100.00;77123.47;4970182;28;19914;-68
2022/06/28 06:14:53;;;;;;;;;;;;;;;-142.75;100.00;77111.66;4980606;28;19925;-68
2022/06/28 06:17:18;;;;;;;;;;;;;;;-142.75;100.00;77103.78;4993304;28;19914;-70
2022/06/28 06:19:45;;;;;;;;;;;;;;;-142.75;100.00;77082.13;4969828;28;20384;-69
2022/06/28 06:22:10;;;;;;;;;;;;;;;-142.75;100.00;77064.41;4980757;28;20299;-68
2022/06/28 06:24:35;;;;;;;;;;;;;;;-142.75;100.00;77058.50;5013855;28;19913;-68
2022/06/28 06:27:00;;;;;;;;;;;;;;;-142.75;100.00;77042.75;4968827;28;19922;-69
2022/06/28 06:29:26;;;;;;;;;;;;;;;-142.75;100.00;77042.75;4970124;28;20410;-68
2022/06/28 06:31:51;;;;;;;;;;;;;;;-142.75;100.00;77028.97;5003323;28;19919;-69
2022/06/28 06:34:17;;;;;;;;;;;;;;;-142.75;100.00;77009.28;5028508;28;20447;-69
2022/06/28 06:36:43;;;;;;;;;;;;;;;-142.75;100.00;76999.44;5053956;28;19920;-70
2022/06/28 06:39:08;;;;;;;;;;;;;;;-142.75;100.00;76977.78;5047342;28;19921;-69
2022/06/28 06:41:33;;;;;;;;;;;;;;;-142.75;100.00;76967.94;5055185;28;20298;-70
2022/06/28 06:43:59;;;;;;;;;;;;;;;-142.75;100.00;76983.69;5053756;28;19920;-68
2022/06/28 06:46:24;;;;;;;;;;;;;;;-142.75;100.00;76971.88;4984199;28;19963;-68
2022/06/28 06:48:50;;;;;;;;;;;;;;;-142.75;100.00;76956.13;4972785;28;20000;-70
2022/06/28 06:51:15;;;;;;;;;;;;;;;-142.75;100.00;76946.28;4971700;28;19921;-69
2022/06/28 06:53:40;;;;;;;;;;;;;;;-142.75;100.00;76916.75;5035237;28;19944;-69
2022/06/28 06:56:05;;;;;;;;;;;;;;;-142.75;100.00;76901.00;5032611;28;19917;-68
2022/06/28 06:58:31;;;;;;;;;;;;;;;-142.75;100.00;76901.00;5041758;28;19917;-69
2022/06/28 07:00:57;;;;;;;;;;;;;;;-142.75;100.00;76869.50;5054971;28;19940;-69
2022/06/28 07:03:23;;;;;;;;;;;;;;;-142.75;100.00;76895.09;5054670;28;20434;-68
2022/06/28 07:05:48;;;;;;;;;;;;;;;-142.75;100.00;76873.44;5053535;28;20024;-69
2022/06/28 07:08:13;;;;;;;;;;;;;;;-142.75;100.00;76865.56;5021155;28;20011;-70
2022/06/28 07:10:38;;;;;;;;;;;;;;;-142.75;100.00;76834.06;5040284;28;20007;-70
2022/06/28 07:13:03;;;;;;;;;;;;;;;-142.75;100.00;76834.06;5054691;28;20026;-69
2022/06/28 07:15:29;;;;;;;;;;;;;;;-142.75;100.00;76834.06;5054691;28;19981;-70
2022/06/28 07:17:54;;;;;;;;;;;;;;;-142.75;100.00;76814.38;5054165;28;19921;-69
2022/06/28 07:20:19;;;;;;;;;;;;;;;-142.75;100.00;76814.38;5053227;28;19916;-68
2022/06/28 07:22:44;;;;;;;;;;;;;;;-142.75;100.00;76845.88;5053072;28;19912;-69
2022/06/28 07:25:09;;;;;;;;;;;;;;;-142.75;100.00;76859.66;5053056;28;19923;-68
2022/06/28 07:27:35;;;;;;;;;;;;;;;-142.75;100.00;76867.53;5054316;28;19940;-69
2022/06/28 07:30:00;;;;;;;;;;;;;;;-142.75;100.00;76845.88;5052770;28;19912;-68
2022/06/28 07:32:25;;;;;;;;;;;;;;;-142.75;100.00;76873.44;5054358;28;20015;-69
2022/06/28 07:34:50;;;;;;;;;;;;;;;-142.75;100.00;76838.00;5052719;28;20008;-69
2022/06/28 07:37:16;;;;;;;;;;;;;;;-142.75;100.00;76806.50;5054105;28;19913;-69
2022/06/28 07:39:43;;;;;;;;;;;;;;;-142.75;100.00;76804.53;5053751;28;19995;-69
2022/06/28 07:42:08;;;;;;;;;;;;;;;-142.75;100.00;76784.88;5054175;28;20282;-68
2022/06/28 07:44:33;;;;;;;;;;;;;;;-142.75;100.00;76834.06;5054155;28;19913;-69
2022/06/28 07:46:58;;;;;;;;;;;;;;;-142.75;100.00;76822.25;5053231;28;19913;-69
2022/06/28 07:52:33;;;;;;;;;;;;;;;-142.75;100.00;76826.19;5053504;28;19913;-69
2022/06/28 07:54:53;;;;;;;;;;;;;;;-142.75;100.00;76861.63;5053837;28;19970;-68
2022/06/28 07:57:18;;;;;;;;;;;;;;;-142.75;100.00;76871.47;5052606;28;19917;-69
2022/06/28 07:59:43;;;;;;;;;;;;;;;-142.75;100.00;76881.31;5053536;28;20358;-69
2022/06/28 08:02:08;;;;;;;;;;;;;;;-142.75;100.00;76897.06;5053837;28;19912;-69
2022/06/28 08:04:33;;;;;;;;;;;;;;;-142.75;100.00;76853.75;5052283;28;19912;-69
2022/06/28 08:06:59;;;;;;;;;;;;;;;-142.75;100.00;76818.31;5053711;28;19920;-69
2022/06/28 08:09:24;;;;;;;;;;;;;;;-142.75;100.00;76824.22;5052057;28;20375;-69
2022/06/28 08:11:49;;;;;;;;;;;;;;;-142.75;100.00;76784.88;5052322;28;19919;-69
2022/06/28 08:14:14;;;;;;;;;;;;;;;-142.75;100.00;76743.53;5053605;28;19912;-70
2022/06/28 08:16:39;;;;;;;;;;;;;;;-142.75;100.00;76786.84;5053489;28;19979;-69
2022/06/28 08:19:05;;;;;;;;;;;;;;;-142.75;100.00;76731.72;5052932;28;19933;-69
2022/06/28 08:21:30;;;;;;;;;;;;;;;-142.75;100.00;76727.78;5053399;28;19913;-69
2022/06/28 08:23:55;;;;;;;;;;;;;;;-142.75;100.00;76704.16;5053420;28;20146;-69
2022/06/28 08:26:20;;;;;;;;;;;;;;;-142.75;100.00;76686.44;5053286;28;19955;-69
2022/06/28 08:28:45;;;;;;;;;;;;;;;-142.75;100.00;76645.09;5052949;28;20016;-69
2022/06/28 08:31:11;;;;;;;;;;;;;;;-142.75;100.00;76625.41;5053229;28;19919;-69
2022/06/28 08:33:36;;;;;;;;;;;;;;;-142.75;100.00;76647.06;5067644;22;19927;-64
2022/06/28 08:36:01;;;;;;;;;;;;;;;-142.75;100.00;76617.53;4969675;28;20016;-65
2022/06/28 08:38:26;;;;;;;;;;;;;;;-142.75;100.00;76586.03;4970471;28;19914;-65
2022/06/28 08:40:52;;;;;;;;;;;;;;;-142.75;100.00;76554.53;4971695;28;19918;-65
2022/06/28 08:43:18;;;;;;;;;;;;;;;-142.75;100.00;76595.88;4971820;28;19914;-65
2022/06/28 08:45:43;;;;;;;;;;;;;;;-142.75;100.00;76546.66;4971360;28;19915;-65
2022/06/28 08:48:20;;;;;;;;;;;;;;;-142.75;100.00;76528.97;4969790;28;19914;-65
2022/06/28 08:50:49;;;;;;;;;;;;;;;-142.75;100.00;76525.03;4971471;28;19915;-65
2022/06/28 08:53:15;;;;;;;;;;;;;;;-142.75;100.00;76491.56;4971305;28;19914;-65
2022/06/28 08:55:40;;;;;;;;;;;;;;;-142.75;100.00;76471.88;4971155;28;19914;-65
2022/06/28 08:58:07;;;;;;;;;;;;;;;-142.75;100.00;76450.22;4970900;28;20277;-65
2022/06/28 09:00:33;;;;;;;;;;;;;;;-142.75;100.00;76509.28;4971152;28;19922;-65
2022/06/28 09:02:58;;;;;;;;;;;;;;;-142.75;100.00;76503.38;4971147;28;19922;-65
2022/06/28 09:05:25;;;;;;;;;;;;;;;-142.75;100.00;76515.19;4971054;28;19914;-65
2022/06/28 09:07:51;;;;;;;;;;;;;;;-142.75;100.00;76519.13;4971054;28;19914;-65
2022/06/28 09:10:17;;;;;;;;;;;;;;;-142.75;100.00;76487.63;4969751;28;19914;-65
2022/06/28 09:12:42;;;;;;;;;;;;;;;-142.75;100.00;76540.75;4971162;28;20139;-65
2022/06/28 09:15:08;;;;;;;;;;;;;;;-142.75;100.00;76530.91;4971007;28;20013;-67
2022/06/28 09:17:33;;;;;;;;;;;;;;;-142.75;100.00;76495.50;4970836;28;20287;-67
2022/06/28 09:20:01;;;;;;;;;;;;;;;-142.75;100.00;76515.19;4970760;28;20363;-65
2022/06/28 09:22:29;;;;;;;;;;;;;;;-142.75;100.00;76511.25;4971002;28;19914;-65
2022/06/28 09:24:54;;;;;;;;;;;;;;;-142.75;100.00;76542.72;4970798;28;19914;-65
2022/06/28 09:27:31;;;;;;;;;;;;;;;-142.75;100.00;76566.34;4970824;28;20012;-65
2022/06/28 09:29:56;;;;;;;;;;;;;;;-142.75;100.00;76562.41;4970523;28;19915;-65
2022/06/28 09:32:26;;;;;;;;;;;;;;;-142.75;100.00;76538.78;4970585;28;20017;-65
2022/06/28 09:34:56;;;;;;;;;;;;;;;-142.75;100.00;76515.19;4970566;28;19965;-64
2022/06/28 09:37:40;;;;;;;;;;;;;;;-142.75;100.00;76527.00;4970791;28;19921;-65
2022/06/28 09:40:12;;;;;;;;;;;;;;;-142.75;100.00;76515.19;4970430;28;19921;-65
2022/06/28 09:42:38;;;;;;;;;;;;;;;-142.75;100.00;76479.75;4970716;28;19922;-65
2022/06/28 09:45:03;;;;;;;;;;;;;;;-142.75;100.00;76450.22;4970571;28;19940;-65
2022/06/28 09:47:29;;;;;;;;;;;;;;;-142.75;96.30;76458.09;4970490;28;19914;-65
2022/06/28 09:49:54;;;;;;;;;;;;;;;-142.75;100.00;76442.34;4970296;28;20345;-66
2022/06/28 09:52:22;;;;;;;;;;;;;;;-142.75;94.92;76448.25;4970594;28;19921;-65
2022/06/28 09:54:50;;;;;;;;;;;;;;;-142.75;96.95;76440.38;4969179;28;19914;-65
2022/06/28 09:57:17;;;;;;;;;;;;;;;-142.75;100.00;76416.75;4970299;28;20008;-65
2022/06/28 09:59:42;;;;;;;;;;;;;;;-142.75;100.00;76381.31;4970123;28;19941;-65
2022/06/28 10:02:10;;;;;;;;;;;;;;;-142.75;87.52;76428.56;4970319;28;20376;-65
2022/06/28 10:04:35;;;;;;;;;;;;;;;-142.75;86.08;76465.97;4970409;28;19922;-65
2022/06/28 10:07:01;;;;;;;;;;;;;;;-142.75;97.56;76448.25;4970321;28;19914;-64
2022/06/28 10:09:26;;;;;;;;;;;;;;;-142.75;87.10;76458.09;4971638;28;19921;-64
2022/06/28 10:17:29;;;;;;;;;;;;;;;-142.75;98.51;76397.06;4973672;28;19951;-64
2022/06/28 10:19:56;;;;;;;;;;;;;;;-142.75;97.59;76338.03;4973282;28;19920;-64
2022/06/28 10:22:21;;;;;;;;;;;;;;;-142.75;84.67;76395.09;4973547;28;19922;-64
2022/06/28 10:24:51;;;;;;;;;;;;;;;-142.75;93.16;76369.50;4973461;28;19959;-64
2022/06/28 10:27:16;;;;;;;;;;;;;;;-142.75;92.62;76357.69;4973492;28;19957;-66
2022/06/28 10:30:09;;;;;;;;;;;;;;;-142.75;88.48;76385.25;4973238;28;19953;-64
2022/06/28 10:32:37;;;;;;;;;;;;;;;-142.75;91.26;76430.53;4956402;28;19918;-64
2022/06/28 10:35:02;;;;;;;;;;;;;;;-142.75;100.00;76381.31;4954066;29;19918;-66
2022/06/28 10:37:27;;;;;;;;;;;;;;;-142.75;87.35;76377.38;4954073;28;20281;-65
2022/06/28 10:40:12;;;;;;;;;;;;;;;-142.75;85.49;76436.44;4958236;28;19944;-66
2022/06/28 10:42:48;;;;;;;;;;;;;;;-142.75;89.09;76464.00;4961673;28;19922;-66
2022/06/28 10:45:13;;;;;;;;;;;;;;;-142.75;100.00;76373.44;4962157;28;19915;-66
2022/06/28 10:47:59;;;;;;;;;;;;;;;-142.75;92.03;76332.13;4961622;28;19925;-66
2022/06/28 10:50:24;;;;;;;;;;;;;;;-142.75;81.18;76330.16;4960932;28;19922;-67
2022/06/28 10:53:00;;;;;;;;;;;;;;;-142.75;79.75;76357.69;4962870;28;19918;-65
2022/06/28 10:55:25;;;;;;;;;;;;;;;-142.75;76.43;76351.81;4960993;28;20296;-66
2022/06/28 10:58:05;;;;;;;;;;;;;;;-142.75;79.65;76341.97;4953565;29;19915;-66
2022/06/28 11:00:34;;;;;;;;;;;;;;;-142.75;80.94;76363.59;4953750;28;19919;-65
2022/06/28 11:03:00;;;;;;;;;;;;;;;-142.75;79.24;76383.28;4953743;28;20470;-66
2022/06/28 11:05:46;;;;;;;;;;;;;;;-142.75;76.97;76383.28;4953567;28;19959;-65
2022/06/28 11:08:17;;;;;;;;;;;;;;;-142.75;84.14;76298.66;4946191;28;19920;-66
2022/06/28 11:11:03;;;;;;;;;;;;;;;-142.75;75.82;76300.63;4953635;28;19918;-66
2022/06/28 11:13:28;;;;;;;;;;;;;;;-142.75;75.15;76312.44;4953076;29;19921;-67
2022/06/28 11:15:53;;;;;;;;;;;;;;;-142.75;75.51;76310.47;4953418;29;19923;-66
2022/06/28 11:18:20;;;;;;;;;;;;;;;-142.75;74.89;76310.47;4953174;29;19915;-66
2022/06/28 11:20:45;;;;;;;;;;;;;;;-142.75;72.02;76345.91;4952382;28;19918;-66
2022/06/28 11:23:31;;;;;;;;;;;;;;;-142.75;72.57;76361.63;4953403;28;19997;-66
2022/06/28 11:29:00;;;;;;;;;;;;;;;-142.75;85.82;76288.81;4953004;28;20009;-66
2022/06/28 11:31:27;;;;;;;;;;;;;;;-142.75;73.77;76273.06;4951914;29;19914;-66
2022/06/28 11:33:53;;;;;;;;;;;;;;;-142.75;80.23;76219.91;4953065;28;19921;-66
2022/06/28 11:36:26;;;;;;;;;;;;;;;-142.75;79.97;76180.56;4953280;28;19914;-66
2022/06/28 11:38:51;;;;;;;;;;;;;;;-142.75;75.87;76153.00;4952849;28;20362;-65
2022/06/28 11:41:32;;;;;;;;;;;;;;;-142.75;71.57;76176.63;4953202;28;20010;-66
2022/06/28 11:43:58;;;;;;;;;;;;;;;-142.75;66.84;76208.09;4952902;28;19915;-66
2022/06/28 11:46:24;;;;;;;;;;;;;;;-142.75;73.37;76206.13;4953093;28;20076;-66
2022/06/28 11:48:49;;;;;;;;;;;;;;;-142.75;69.10;76233.69;4952790;28;20013;-66
2022/06/28 11:51:23;;;;;;;;;;;;;;;-142.75;68.43;76239.59;4953034;28;20009;-66
2022/06/28 11:53:48;;;;;;;;;;;;;;;-142.75;69.34;76245.50;4952840;29;20014;-66
2022/06/28 11:56:13;;;;;;;;;;;;;;;-142.75;74.54;76166.78;4953016;29;19970;-66
2022/06/28 11:58:39;;;;;;;;;;;;;;;-142.75;67.09;76200.25;4952463;29;19946;-66
2022/06/28 12:01:14;;;;;;;;;;;;;;;-142.75;68.98;76219.91;4952860;29;20338;-65
2022/06/28 12:03:42;;;;;;;;;;;;;;;-142.75;75.20;76168.75;4952750;28;19981;-66
2022/06/28 12:06:08;;;;;;;;;;;;;;;-142.75;67.26;76214.00;4952570;28;19929;-66
2022/06/28 12:08:45;;;;;;;;;;;;;;;-142.75;72.06;76208.09;4952405;28;20368;-65
2022/06/28 12:11:24;;;;;;;;;;;;;;;-142.75;74.66;76217.94;4952591;29;19941;-66
2022/06/28 12:13:53;;;;;;;;;;;;;;;-142.75;76.86;76210.06;4952623;28;19961;-66
2022/06/28 12:16:18;;;;;;;;;;;;;;;-142.75;70.70;76227.78;4952568;28;19988;-65
2022/06/28 12:18:50;;;;;;;;;;;;;;;-142.75;77.47;76231.72;4952156;29;20384;-66
2022/06/28 12:21:15;;;;;;;;;;;;;;;-142.75;70.90;76259.28;4951345;28;19922;-66
2022/06/28 12:23:51;;;;;;;;;;;;;;;-142.75;78.70;76192.38;4952572;29;19921;-66
2022/06/28 12:26:16;;;;;;;;;;;;;;;-142.75;76.73;76219.91;4952543;28;20281;-66
2022/06/28 12:28:41;;;;;;;;;;;;;;;-142.75;75.36;76219.91;4952133;29;19918;-66
2022/06/28 12:31:06;;;;;;;;;;;;;;;-142.75;78.66;76156.94;4952278;28;20564;-65
2022/06/28 12:33:32;;;;;;;;;;;;;;;-142.75;78.47;76125.44;4952197;29;19922;-66